Time;durP1;ratioP1;P1;durP2;ratioP2;P2;SDS_P1;SDS_P2;PMS_P1;PMS_P2;Temp;Humidity;BMP_temperature;BMP_pressure;BME280_temperature;BME280_humidity;BME280_pressure;Samples;Min_cycle;Max_cycle;Signal;HPM_P1;HPM_P2
2023/04/15 00:00:59;;;;;;;6.67;4.63;;;;;;;6.25;100.00;100741.06;7393056;19;20454;-35
2023/04/15 00:03:28;;;;;;;7.30;4.63;;;;;;;6.17;100.00;100754.28;7395747;19;20458;-35
2023/04/15 00:05:59;;;;;;;9.13;4.37;;;;;;;6.11;100.00;100737.66;7392680;19;20558;-35
2023/04/15 00:08:29;;;;;;;7.40;4.60;;;;;;;6.16;100.00;100731.13;7395146;19;20968;-35
2023/04/15 00:11:01;;;;;;;9.10;4.70;;;;;;;6.15;100.00;100732.81;7392847;19;20910;-36
2023/04/15 00:13:34;;;;;;;7.83;4.63;;;;;;;6.14;100.00;100733.59;7395004;19;20460;-36
2023/04/15 00:16:03;;;;;;;9.67;5.50;;;;;;;6.18;100.00;100737.22;7393503;19;20459;-35
2023/04/15 00:18:33;;;;;;;7.30;4.50;;;;;;;6.19;100.00;100718.50;7394514;19;20934;-35
2023/04/15 00:21:03;;;;;;;6.80;4.30;;;;;;;6.10;100.00;100716.25;7392571;19;20780;-34
2023/04/15 00:23:33;;;;;;;6.97;4.00;;;;;;;6.08;100.00;100703.38;7394056;19;20451;-36
2023/04/15 00:26:02;;;;;;;7.80;4.93;;;;;;;6.11;100.00;100704.34;7392838;19;21171;-35
2023/04/15 00:28:34;;;;;;;6.60;4.10;;;;;;;6.01;100.00;100695.22;7396534;19;20412;-36
2023/04/15 00:31:04;;;;;;;11.53;5.80;;;;;;;6.08;100.00;100677.78;7393105;19;20435;-36
2023/04/15 00:33:35;;;;;;;6.43;4.37;;;;;;;6.14;100.00;100678.91;7394159;19;20798;-35
2023/04/15 00:36:05;;;;;;;7.70;4.40;;;;;;;6.16;100.00;100661.97;7393260;19;20519;-34
2023/04/15 00:38:35;;;;;;;7.93;4.93;;;;;;;6.15;100.00;100657.63;7394532;19;20408;-36
2023/04/15 00:41:05;;;;;;;7.43;4.67;;;;;;;6.15;100.00;100650.81;7392640;19;20451;-38
2023/04/15 00:43:37;;;;;;;7.93;4.50;;;;;;;6.19;100.00;100644.19;7392107;19;20463;-36
2023/04/15 00:46:08;;;;;;;8.67;5.20;;;;;;;6.18;100.00;100627.94;7392538;19;20982;-35
2023/04/15 00:48:38;;;;;;;11.63;5.37;;;;;;;6.22;100.00;100623.88;7394043;19;20412;-36
2023/04/15 00:51:08;;;;;;;12.30;5.60;;;;;;;6.16;100.00;100618.41;7392991;19;20438;-35
2023/04/15 00:53:38;;;;;;;10.23;5.77;;;;;;;6.20;100.00;100607.53;7394021;19;20888;-35
2023/04/15 00:56:08;;;;;;;9.97;5.77;;;;;;;6.20;100.00;100595.59;7387305;19;20443;-36
2023/04/15 00:58:40;;;;;;;10.23;5.43;;;;;;;6.23;100.00;100594.91;7393864;19;20411;-35
2023/04/15 01:01:10;;;;;;;10.87;4.83;;;;;;;6.11;100.00;100594.19;7390776;19;20443;-35
2023/04/15 01:03:40;;;;;;;11.70;6.00;;;;;;;6.15;100.00;100581.66;7392852;19;20486;-36
2023/04/15 01:06:10;;;;;;;9.40;5.40;;;;;;;6.10;100.00;100583.06;7391513;19;20510;-35
2023/04/15 01:08:40;;;;;;;11.30;5.60;;;;;;;6.18;100.00;100571.59;7393575;19;20412;-36
2023/04/15 01:11:10;;;;;;;9.67;6.10;;;;;;;6.22;100.00;100562.41;7390534;19;20782;-37
2023/04/15 01:13:42;;;;;;;10.80;5.90;;;;;;;6.07;100.00;100560.72;7393195;19;20447;-37
2023/04/15 01:16:12;;;;;;;12.87;6.80;;;;;;;6.17;100.00;100551.00;7390765;19;20451;-35
2023/04/15 01:18:42;;;;;;;9.40;5.60;;;;;;;6.17;100.00;100544.22;7392829;19;21030;-36
2023/04/15 01:21:12;;;;;;;14.80;6.77;;;;;;;6.13;100.00;100533.69;7389231;19;20451;-35
2023/04/15 01:23:42;;;;;;;11.97;6.10;;;;;;;6.13;100.00;100521.75;7392410;19;20443;-35
2023/04/15 01:26:15;;;;;;;12.10;6.90;;;;;;;6.11;100.00;100515.69;7390153;19;20439;-35
2023/04/15 01:28:44;;;;;;;11.80;5.90;;;;;;;6.21;100.00;100510.25;7392889;19;20412;-37
2023/04/15 01:31:16;;;;;;;10.30;6.20;;;;;;;6.20;100.00;100500.81;7390336;19;20463;-35
2023/04/15 01:33:45;;;;;;;12.47;6.70;;;;;;;6.17;100.00;100503.22;7392720;19;20459;-35
2023/04/15 01:36:15;;;;;;;11.30;6.60;;;;;;;6.15;100.00;100498.81;7390722;19;20470;-35
2023/04/15 01:38:45;;;;;;;11.83;6.43;;;;;;;6.20;100.00;100493.13;7392337;19;20411;-35
2023/04/15 01:41:18;;;;;;;10.93;6.43;;;;;;;6.14;100.00;100491.88;7389606;19;20447;-35
2023/04/15 01:43:48;;;;;;;10.67;6.37;;;;;;;6.17;100.00;100477.59;7392089;19;20451;-36
2023/04/15 01:46:18;;;;;;;10.87;6.63;;;;;;;6.19;100.00;100468.31;7390063;19;20447;-34
2023/04/15 01:48:47;;;;;;;15.00;7.03;;;;;;;6.12;100.00;100473.91;7392390;19;20415;-35
2023/04/15 01:51:17;;;;;;;11.40;6.80;;;;;;;6.10;100.00;100467.78;7389613;19;21029;-36
2023/04/15 01:53:46;;;;;;;12.50;7.10;;;;;;;6.07;100.00;100460.81;7392285;19;20474;-36
2023/04/15 01:56:18;;;;;;;13.43;7.87;;;;;;;6.11;100.00;100466.13;7389760;19;20443;-35
2023/04/15 01:58:48;;;;;;;12.03;6.87;;;;;;;6.16;100.00;100452.75;7391366;19;20408;-34
2023/04/15 02:01:18;;;;;;;11.97;6.50;;;;;;;6.12;100.00;100452.50;7389828;19;20435;-36
2023/04/15 02:03:48;;;;;;;12.63;6.50;;;;;;;6.16;100.00;100455.31;7391618;19;20863;-36
2023/04/15 02:06:18;;;;;;;11.67;7.10;;;;;;;6.16;100.00;100439.06;7390358;19;20458;-43
2023/04/15 02:08:48;;;;;;;11.97;6.63;;;;;;;6.17;100.00;100446.84;7391481;19;21263;-36
2023/04/15 02:11:20;;;;;;;16.03;8.30;;;;;;;6.14;100.00;100445.78;7388740;19;20470;-35
2023/04/15 02:13:52;;;;;;;13.40;7.67;;;;;;;6.11;100.00;100451.66;7393632;19;20466;-35
2023/04/15 02:16:22;;;;;;;13.33;7.30;;;;;;;6.14;100.00;100446.66;7397387;19;20458;-35
2023/04/15 02:18:51;;;;;;;13.33;7.13;;;;;;;6.11;100.00;100450.75;7400952;19;20428;-34
2023/04/15 02:21:21;;;;;;;11.60;6.67;;;;;;;6.15;100.00;100452.69;7396495;19;20829;-36
2023/04/15 02:23:52;;;;;;;13.90;7.50;;;;;;;6.11;100.00;100449.09;7397416;19;20439;-35
2023/04/15 02:26:25;;;;;;;13.70;7.40;;;;;;;6.07;100.00;100455.69;7396249;19;20979;-35
2023/04/15 02:28:54;;;;;;;13.20;7.93;;;;;;;6.10;100.00;100454.97;7398436;19;20419;-35
2023/04/15 02:31:24;;;;;;;15.00;8.40;;;;;;;6.07;100.00;100455.69;7396318;19;20484;-35
2023/04/15 02:33:53;;;;;;;13.30;7.77;;;;;;;6.00;100.00;100458.69;7398107;19;20472;-35
2023/04/15 02:36:23;;;;;;;14.47;8.13;;;;;;;6.03;100.00;100464.03;7396846;19;20450;-35
2023/04/15 02:38:52;;;;;;;14.00;7.30;;;;;;;6.06;100.00;100469.28;7397939;19;20404;-36
2023/04/15 02:41:26;;;;;;;15.43;8.17;;;;;;;6.07;100.00;100467.63;7394897;19;20816;-36
2023/04/15 02:43:56;;;;;;;16.70;8.90;;;;;;;6.10;100.00;100472.03;7397490;19;20474;-35
2023/04/15 02:46:26;;;;;;;15.97;8.60;;;;;;;6.18;100.00;100473.34;7396316;19;20478;-34
2023/04/15 02:48:55;;;;;;;16.47;8.40;;;;;;;6.14;100.00;100471.38;7398060;19;21292;-36
2023/04/15 02:51:25;;;;;;;18.60;9.73;;;;;;;6.28;100.00;100472.16;7394921;19;20827;-34
2023/04/15 02:53:55;;;;;;;15.83;8.23;;;;;;;6.30;100.00;100468.88;7397453;19;20868;-37
2023/04/15 02:56:27;;;;;;;15.70;8.70;;;;;;;6.28;100.00;100469.59;7395485;19;20447;-36
2023/04/15 02:58:57;;;;;;;16.30;9.10;;;;;;;6.19;100.00;100477.66;7396720;19;20431;-34
2023/04/15 03:01:26;;;;;;;18.90;9.40;;;;;;;6.17;100.00;100484.38;7395044;19;20451;-35
2023/04/15 03:03:56;;;;;;;16.30;8.70;;;;;;;6.20;100.00;100481.97;7397416;19;20459;-36
2023/04/15 03:06:26;;;;;;;17.10;9.17;;;;;;;6.18;100.00;100488.72;7395625;19;20454;-35
2023/04/15 03:08:55;;;;;;;17.30;9.70;;;;;;;6.14;100.00;100486.75;7397031;19;20411;-35
2023/04/15 03:11:28;;;;;;;17.63;9.30;;;;;;;6.18;100.00;100483.59;7394497;19;20447;-34
2023/04/15 03:13:57;;;;;;;19.47;10.17;;;;;;;6.18;100.00;100486.16;7396750;19;20455;-36
2023/04/15 03:16:27;;;;;;;17.87;9.83;;;;;;;6.21;100.00;100494.03;7395307;19;20464;-37
2023/04/15 03:18:56;;;;;;;19.83;9.47;;;;;;;6.31;100.00;100498.84;7396788;19;20966;-36
2023/04/15 03:21:26;;;;;;;20.20;10.20;;;;;;;6.29;100.00;100497.88;7394558;19;20443;-36
2023/04/15 03:23:56;;;;;;;20.97;10.37;;;;;;;6.27;100.00;100501.16;7396571;19;20470;-36
2023/04/15 03:26:29;;;;;;;19.43;10.00;;;;;;;6.28;100.00;100496.13;7393034;19;20476;-36
2023/04/15 03:29:00;;;;;;;17.57;9.80;;;;;;;6.30;100.00;100494.50;7397080;19;20797;-36
2023/04/15 03:31:29;;;;;;;19.30;10.47;;;;;;;6.29;100.00;100497.88;7393424;19;20454;-36
2023/04/15 03:33:59;;;;;;;22.57;11.07;;;;;;;6.28;100.00;100501.25;7396458;19;20447;-36
2023/04/15 03:36:31;;;;;;;22.30;11.43;;;;;;;6.31;100.00;100498.84;7394506;19;20440;-37
2023/04/15 03:39:01;;;;;;;23.60;11.60;;;;;;;6.28;100.00;100495.22;7397030;19;20416;-36
2023/04/15 03:41:34;;;;;;;18.77;10.10;;;;;;;6.31;100.00;100491.16;7393595;19;20447;-35
2023/04/15 03:44:04;;;;;;;23.90;11.43;;;;;;;6.27;100.00;100488.34;7396914;19;20487;-36
2023/04/15 03:46:33;;;;;;;30.20;12.93;;;;;;;6.28;100.00;100490.09;7394256;19;20966;-37
2023/04/15 03:49:03;;;;;;;25.97;12.47;;;;;;;6.25;100.00;100495.06;7395999;19;20412;-36
2023/04/15 03:51:33;;;;;;;27.37;13.17;;;;;;;6.28;100.00;100493.56;7393604;19;20454;-35
2023/04/15 03:54:03;;;;;;;28.57;13.80;;;;;;;6.28;100.00;100500.34;7396421;19;20829;-36
2023/04/15 03:56:35;;;;;;;27.40;12.60;;;;;;;6.24;100.00;100501.84;7394683;19;20962;-36
2023/04/15 03:59:05;;;;;;;30.90;13.23;;;;;;;6.26;100.00;100501.94;7397022;19;20408;-35
2023/04/15 04:01:35;;;;;;;29.10;14.20;;;;;;;6.31;100.00;100495.41;7393548;19;20458;-35
2023/04/15 04:04:04;;;;;;;31.10;15.20;;;;;;;6.32;100.00;100513.41;7396322;19;20459;-36
2023/04/15 04:06:34;;;;;;;28.73;14.17;;;;;;;6.29;100.00;100518.38;7393647;19;20451;-36
2023/04/15 04:09:03;;;;;;;27.03;13.80;;;;;;;6.31;100.00;100516.78;7396094;19;20403;-35
2023/04/15 04:11:36;;;;;;;28.77;15.70;;;;;;;6.31;100.00;100509.09;7392773;19;20447;-36
2023/04/15 04:14:06;;;;;;;30.73;15.00;;;;;;;6.33;100.00;100510.06;7396032;19;20447;-36
2023/04/15 04:16:35;;;;;;;33.23;15.17;;;;;;;6.33;100.00;100510.06;7393973;19;20460;-34
2023/04/15 04:19:05;;;;;;;31.10;15.10;;;;;;;6.38;100.00;100512.88;7395466;19;20939;-36
2023/04/15 04:21:35;;;;;;;30.90;15.13;;;;;;;6.38;100.00;100519.66;7392460;19;20439;-36
2023/04/15 04:24:05;;;;;;;34.93;17.27;;;;;;;6.48;100.00;100504.88;7394902;19;21048;-35
2023/04/15 04:26:37;;;;;;;66.73;33.27;;;;;;;6.81;100.00;100519.44;7393293;19;20478;-35
2023/04/15 04:29:06;;;;;;;41.20;18.40;;;;;;;6.72;100.00;100507.00;7395671;19;20430;-34
2023/04/15 04:31:36;;;;;;;73.97;36.20;;;;;;;6.76;100.00;100513.16;7392924;19;20443;-35
2023/04/15 04:34:06;;;;;;;82.13;38.83;;;;;;;6.86;100.00;100517.09;7395875;19;20443;-34
2023/04/15 04:36:36;;;;;;;53.20;25.60;;;;;;;6.93;100.00;100521.78;7391569;19;20440;-35
2023/04/15 04:39:06;;;;;;;57.20;27.00;;;;;;;6.86;100.00;100523.13;7393909;19;20428;-36
2023/04/15 04:41:38;;;;;;;60.17;27.60;;;;;;;6.75;100.00;100526.78;7391100;19;20979;-36
2023/04/15 04:44:07;;;;;;;45.30;21.90;;;;;;;6.75;100.00;100529.38;7395566;19;20447;-36
2023/04/15 04:46:37;;;;;;;44.57;21.30;;;;;;;6.83;100.00;100533.22;7392645;19;20439;-40
2023/04/15 04:49:06;;;;;;;60.53;29.37;;;;;;;7.15;100.00;100528.03;7395137;19;20787;-36
2023/04/15 04:51:36;;;;;;;53.00;24.27;;;;;;;7.03;100.00;100530.84;7392026;19;20796;-34
2023/04/15 04:54:05;;;;;;;62.57;30.03;;;;;;;7.03;100.00;100543.66;7394337;19;20451;-35
2023/04/15 04:56:38;;;;;;;46.00;19.87;;;;;;;6.94;100.00;100550.88;7392197;19;20472;-34
2023/04/15 04:59:08;;;;;;;44.70;20.73;;;;;;;6.74;100.00;100549.00;7394937;19;20411;-36
2023/04/15 05:01:37;;;;;;;51.30;22.17;;;;;;;6.86;100.00;100559.03;7390610;19;20471;-35
2023/04/15 05:04:07;;;;;;;42.33;20.57;;;;;;;6.74;100.00;100555.81;7393948;19;20458;-35
2023/04/15 05:06:37;;;;;;;45.83;20.60;;;;;;;6.66;100.00;100559.66;7391588;19;20554;-35
2023/04/15 05:09:06;;;;;;;46.03;22.93;;;;;;;6.70;100.00;100559.88;7394095;19;20407;-35
2023/04/15 05:11:39;;;;;;;41.97;22.73;;;;;;;6.80;100.00;100558.69;7390711;19;20802;-34
2023/04/15 05:14:08;;;;;;;46.40;21.10;;;;;;;6.60;100.00;100560.19;7393928;19;20449;-37
2023/04/15 05:16:38;;;;;;;44.13;20.33;;;;;;;6.63;100.00;100557.78;7390989;19;20475;-35
2023/04/15 05:19:07;;;;;;;45.30;21.17;;;;;;;6.67;100.00;100551.16;7394173;19;20457;-35
2023/04/15 05:21:37;;;;;;;44.70;21.20;;;;;;;6.63;100.00;100555.22;7390245;19;20447;-35
2023/04/15 05:24:08;;;;;;;51.33;22.93;;;;;;;6.59;100.00;100550.72;7393582;19;20813;-35
2023/04/15 05:26:40;;;;;;;43.90;20.63;;;;;;;6.58;100.00;100551.53;7391618;19;20849;-35
2023/04/15 05:29:11;;;;;;;47.03;19.90;;;;;;;6.60;100.00;100555.06;7393101;19;20478;-35
2023/04/15 05:31:40;;;;;;;42.90;21.67;;;;;;;6.54;100.00;100554.72;7390376;19;20447;-35
2023/04/15 05:34:11;;;;;;;45.00;20.70;;;;;;;6.65;100.00;100558.75;7393328;19;20546;-35
2023/04/15 05:36:40;;;;;;;41.80;22.33;;;;;;;6.74;100.00;100550.69;7390819;19;20622;-35
2023/04/15 05:39:10;;;;;;;41.63;20.40;;;;;;;6.76;100.00;100554.19;7393004;19;20446;-34
2023/04/15 05:41:42;;;;;;;43.90;22.00;;;;;;;6.76;100.00;100554.19;7389473;19;20443;-35
2023/04/15 05:44:11;;;;;;;44.93;21.60;;;;;;;6.72;100.00;100549.72;7393030;19;20449;-35
2023/04/15 05:46:41;;;;;;;37.20;18.93;;;;;;;6.69;100.00;100539.28;7390220;19;20459;-35
2023/04/15 05:49:10;;;;;;;43.63;21.23;;;;;;;6.68;100.00;100552.91;7395229;19;20828;-35
2023/04/15 05:51:40;;;;;;;46.80;21.60;;;;;;;6.71;100.00;100563.31;7397163;19;20443;-34
2023/04/15 05:54:09;;;;;;;42.93;23.20;;;;;;;6.70;100.00;100559.00;7399351;19;21157;-35
2023/04/15 05:56:42;;;;;;;42.20;21.20;;;;;;;6.82;100.00;100557.09;7396913;19;20798;-35
2023/04/15 05:59:11;;;;;;;42.33;21.53;;;;;;;6.85;100.00;100549.59;7399443;19;20407;-35
2023/04/15 06:01:41;;;;;;;51.67;23.07;;;;;;;6.81;100.00;100551.91;7397057;19;20487;-37
2023/04/15 06:04:10;;;;;;;49.93;23.07;;;;;;;6.77;100.00;100561.09;7398390;19;20447;-35
2023/04/15 06:06:40;;;;;;;50.13;22.77;;;;;;;6.78;100.00;100560.31;7394134;19;20489;-35
2023/04/15 06:09:10;;;;;;;48.43;22.13;;;;;;;6.75;100.00;100570.38;7401585;19;20427;-36
2023/04/15 06:11:42;;;;;;;46.10;22.90;;;;;;;6.72;100.00;100575.38;7396290;19;20982;-36
2023/04/15 06:14:12;;;;;;;56.80;24.90;;;;;;;6.79;100.00;100579.13;7399099;19;20484;-35
2023/04/15 06:16:42;;;;;;;60.00;24.60;;;;;;;6.83;100.00;100575.94;7396930;19;20439;-35
2023/04/15 06:19:11;;;;;;;50.40;24.20;;;;;;;6.78;100.00;100568.00;7398424;19;20994;-36
2023/04/15 06:21:41;;;;;;;53.70;25.07;;;;;;;6.77;100.00;100573.91;7393937;19;20453;-35
2023/04/15 06:24:10;;;;;;;58.83;26.60;;;;;;;6.82;100.00;100581.88;7397201;19;20455;-35
2023/04/15 06:26:42;;;;;;;58.83;27.43;;;;;;;6.86;100.00;100594.94;7396451;19;20447;-35
2023/04/15 06:29:12;;;;;;;62.07;28.10;;;;;;;6.85;100.00;100588.06;7397576;19;20407;-35
2023/04/15 06:31:41;;;;;;;61.30;29.53;;;;;;;6.87;100.00;100600.97;7396006;19;20458;-35
2023/04/15 06:34:11;;;;;;;78.27;31.60;;;;;;;6.88;100.00;100595.03;7397564;19;20458;-35
2023/04/15 06:36:40;;;;;;;63.13;29.30;;;;;;;6.87;100.00;100600.97;7396313;19;21298;-35
2023/04/15 06:39:10;;;;;;;69.77;30.47;;;;;;;6.89;100.00;100600.22;7397984;19;20408;-35
2023/04/15 06:41:39;;;;;;;86.93;34.43;;;;;;;6.97;100.00;100597.22;7394750;19;20469;-35
2023/04/15 06:44:11;;;;;;;67.87;31.40;;;;;;;6.87;100.00;100604.41;7397299;19;20439;-35
2023/04/15 06:46:41;;;;;;;67.20;29.70;;;;;;;6.88;100.00;100593.31;7395338;19;20807;-35
2023/04/15 06:49:11;;;;;;;73.57;30.93;;;;;;;6.98;100.00;100604.09;7397223;19;20934;-35
2023/04/15 06:51:40;;;;;;;64.73;30.77;;;;;;;7.02;100.00;100616.28;7392424;19;20811;-35
2023/04/15 06:54:10;;;;;;;75.03;32.33;;;;;;;7.07;100.00;100613.97;7397124;19;20799;-35
2023/04/15 06:56:40;;;;;;;80.93;33.47;;;;;;;7.02;100.00;100621.41;7394615;19;20957;-35
2023/04/15 06:59:13;;;;;;;91.50;37.60;;;;;;;7.02;100.00;100622.31;7399715;19;20404;-37
2023/04/15 07:01:42;;;;;;;82.93;34.80;;;;;;;7.12;100.00;100627.91;7392084;19;20447;-35
2023/04/15 07:04:12;;;;;;;75.70;33.27;;;;;;;7.10;100.00;100630.41;7396553;19;20993;-35
2023/04/15 07:06:42;;;;;;;73.30;34.07;;;;;;;7.10;100.00;100634.66;7395460;19;20474;-35
2023/04/15 07:09:11;;;;;;;72.37;33.60;;;;;;;7.06;100.00;100641.31;7397102;19;20434;-34
2023/04/15 07:11:41;;;;;;;92.30;36.73;;;;;;;7.11;100.00;100634.75;7392130;19;20452;-35
2023/04/15 07:14:13;;;;;;;76.57;34.33;;;;;;;7.16;100.00;100630.75;7396590;19;20444;-35
2023/04/15 07:16:42;;;;;;;70.13;33.37;;;;;;;7.10;100.00;100634.66;7394960;19;20474;-35
2023/04/15 07:19:12;;;;;;;76.47;33.97;;;;;;;7.20;100.00;100636.03;7396698;19;20407;-35
2023/04/15 07:21:41;;;;;;;80.13;35.27;;;;;;;7.15;100.00;100639.25;7392853;19;20473;-35
2023/04/15 07:24:11;;;;;;;93.13;35.10;;;;;;;7.22;100.00;100639.59;7396492;19;20454;-35
2023/04/15 07:26:41;;;;;;;66.63;30.87;;;;;;;7.18;100.00;100643.63;7394679;19;20443;-36
2023/04/15 07:29:13;;;;;;;69.40;30.83;;;;;;;7.10;100.00;100635.56;7396077;19;20408;-35
2023/04/15 07:31:43;;;;;;;71.77;31.97;;;;;;;7.08;100.00;100644.81;7391758;19;20783;-35
2023/04/15 07:34:12;;;;;;;70.27;31.30;;;;;;;7.05;100.00;100657.50;7395707;19;20975;-35
2023/04/15 07:36:42;;;;;;;105.20;39.70;;;;;;;7.16;100.00;100656.41;7394168;19;20470;-35
2023/04/15 07:39:11;;;;;;;81.23;35.00;;;;;;;7.20;100.00;100656.56;7398179;19;20428;-34
2023/04/15 07:41:41;;;;;;;73.93;32.83;;;;;;;7.18;100.00;100664.16;7392804;19;20477;-34
2023/04/15 07:44:13;;;;;;;78.37;34.20;;;;;;;7.20;100.00;100657.47;7389999;19;20448;-35
2023/04/15 07:46:42;;;;;;;88.13;35.47;;;;;;;7.24;100.00;100654.22;7393941;19;20439;-36
2023/04/15 07:49:12;;;;;;;71.30;31.93;;;;;;;7.18;100.00;100655.59;7394967;19;20420;-35
2023/04/15 07:51:43;;;;;;;73.23;32.57;;;;;;;7.22;100.00;100662.69;7391876;19;20466;-35
2023/04/15 07:54:12;;;;;;;126.83;44.03;;;;;;;7.33;100.00;100664.13;7396043;19;20824;-35
2023/04/15 07:56:42;;;;;;;99.87;36.30;;;;;;;7.41;100.00;100660.28;7393466;19;20446;-34
2023/04/15 07:59:16;;;;;;;71.97;33.13;;;;;;;7.49;100.00;100662.38;7394967;19;20938;-35
2023/04/15 08:01:46;;;;;;;72.87;34.40;;;;;;;7.47;100.00;100670.00;7393001;19;20448;-35
2023/04/15 08:04:15;;;;;;;71.37;34.67;;;;;;;7.55;100.00;100662.69;7393717;19;20977;-35
2023/04/15 08:06:47;;;;;;;72.90;33.70;;;;;;;7.51;100.00;100673.59;7393196;19;20446;-36
2023/04/15 08:09:16;;;;;;;74.17;34.90;;;;;;;7.56;100.00;100678.19;7396046;19;20403;-36
2023/04/15 08:11:46;;;;;;;69.00;31.60;;;;;;;7.57;100.00;100684.19;7389228;19;20463;-37
2023/04/15 08:14:18;;;;;;;71.03;33.30;;;;;;;7.57;100.00;100684.19;7393502;19;20989;-35
2023/04/15 08:16:47;;;;;;;69.40;30.90;;;;;;;7.52;100.00;100685.63;7393464;19;20447;-37
2023/04/15 08:19:17;;;;;;;92.33;36.03;;;;;;;7.51;100.00;100686.44;7393656;19;20779;-35
2023/04/15 08:21:47;;;;;;;68.27;33.10;;;;;;;7.53;100.00;100689.97;7392112;19;20451;-36
2023/04/15 08:24:16;;;;;;;65.70;31.80;;;;;;;7.60;100.00;100697.22;7393265;19;20439;-37
2023/04/15 08:26:47;;;;;;;62.47;30.13;;;;;;;7.64;100.00;100701.69;7392441;19;20447;-35
2023/04/15 08:29:23;;;;;;;69.80;31.03;;;;;;;7.50;100.00;100702.66;7393637;19;20410;-35
2023/04/15 08:31:52;;;;;;;86.93;35.20;;;;;;;7.56;100.00;100710.69;7392693;19;20451;-35
2023/04/15 08:34:22;;;;;;;67.00;31.73;;;;;;;7.54;100.00;100714.84;7393946;19;20447;-37
2023/04/15 08:36:51;;;;;;;55.60;29.77;;;;;;;7.66;100.00;100722.31;7393268;19;20453;-35
2023/04/15 08:39:21;;;;;;;66.50;31.80;;;;;;;7.70;100.00;100722.56;7391369;19;20407;-35
2023/04/15 08:41:54;;;;;;;60.13;29.80;;;;;;;7.66;100.00;100724.88;7389106;19;20455;-36
2023/04/15 08:44:27;;;;;;;64.97;30.37;;;;;;;7.58;100.00;100727.03;7390539;19;20807;-35
2023/04/15 08:46:58;;;;;;;61.57;32.20;;;;;;;7.55;100.00;100732.88;7389560;19;21343;-36
2023/04/15 08:49:28;;;;;;;65.77;29.77;;;;;;;7.51;100.00;100735.22;7388717;19;20505;-35
2023/04/15 08:52:00;;;;;;;60.40;31.13;;;;;;;7.56;100.00;100737.25;7390571;19;20426;-35
2023/04/15 08:54:29;;;;;;;69.60;32.03;;;;;;;7.56;100.00;100741.50;7389546;19;20809;-35
2023/04/15 08:57:01;;;;;;;61.43;30.20;;;;;;;7.67;100.00;100742.97;7390931;19;20907;-36
2023/04/15 08:59:33;;;;;;;65.13;31.17;;;;;;;7.66;100.00;100743.75;7389441;19;20404;-35
2023/04/15 09:02:03;;;;;;;65.87;32.07;;;;;;;7.69;100.00;100746.47;7390818;19;20404;-35
2023/04/15 09:04:32;;;;;;;70.37;31.30;;;;;;;7.71;100.00;100746.56;7389365;19;20443;-36
2023/04/15 09:07:02;;;;;;;61.20;30.70;;;;;;;7.77;100.00;100748.56;7391944;19;20407;-35
2023/04/15 09:09:31;;;;;;;66.07;30.30;;;;;;;7.69;100.00;100759.31;7389026;19;20434;-35
2023/04/15 09:12:03;;;;;;;62.30;31.90;;;;;;;7.74;100.00;100753.56;7391686;19;20622;-35
2023/04/15 09:14:35;;;;;;;66.00;31.30;;;;;;;7.78;100.00;100755.47;7389861;19;20474;-35
2023/04/15 09:17:05;;;;;;;70.07;33.90;;;;;;;7.88;100.00;100750.03;7391318;19;20408;-35
2023/04/15 09:19:35;;;;;;;65.57;30.33;;;;;;;7.93;100.00;100751.16;7388412;19;20395;-35
2023/04/15 09:22:05;;;;;;;63.93;29.93;;;;;;;7.97;100.00;100752.19;7389466;19;20403;-35
2023/04/15 09:24:42;;;;;;;58.57;29.97;;;;;;;8.14;100.00;100755.63;7393990;19;20470;-35
2023/04/15 09:27:11;;;;;;;63.37;30.80;;;;;;;8.33;100.00;100754.00;7399632;19;20407;-35
2023/04/15 09:29:44;;;;;;;62.77;30.53;;;;;;;8.39;100.00;100756.88;7395556;19;20391;-37
2023/04/15 09:32:15;;;;;;;59.10;29.77;;;;;;;8.45;100.00;100759.78;7399183;19;20727;-35
2023/04/15 09:34:45;;;;;;;60.87;30.30;;;;;;;8.64;100.00;100756.47;7398854;19;20438;-35
2023/04/15 09:37:17;;;;;;;58.27;28.87;;;;;;;8.69;100.00;100766.09;7400310;19;20766;-35
2023/04/15 09:40:00;;;;;;;55.37;28.17;;;;;;;8.70;100.00;100767.84;7398086;19;20418;-36
2023/04/15 09:42:31;;;;;;;55.00;29.20;;;;;;;8.72;100.00;100774.84;7394961;19;20414;-35
2023/04/15 09:45:12;;;;;;;56.63;28.57;;;;;;;8.79;100.00;100783.75;7393229;19;20723;-35
2023/04/15 09:47:42;;;;;;;51.37;27.13;;;;;;;8.80;100.00;100784.63;7398037;19;20419;-35
2023/04/15 09:50:13;;;;;;;47.80;27.40;;;;;;;8.90;100.00;100790.31;7391627;19;20434;-35
2023/04/15 09:52:44;;;;;;;57.07;28.63;;;;;;;9.07;100.00;100799.66;7397203;19;20431;-35
2023/04/15 09:55:15;;;;;;;52.70;27.43;;;;;;;9.17;100.00;100805.34;7393431;19;21041;-35
2023/04/15 09:57:46;;;;;;;48.40;27.17;;;;;;;9.23;100.00;100809.00;7401061;19;20418;-35
2023/04/15 10:00:18;;;;;;;55.40;26.40;;;;;;;9.19;100.00;100815.72;7391323;19;20443;-34
2023/04/15 10:02:49;;;;;;;57.87;27.70;;;;;;;9.20;100.00;100817.47;7397827;19;20786;-36
2023/04/15 10:05:19;;;;;;;54.93;27.73;;;;;;;9.30;100.00;100822.28;7392452;19;20830;-35
2023/04/15 10:07:49;;;;;;;52.17;28.17;;;;;;;9.70;100.00;100824.94;7397972;19;20438;-34
2023/04/15 10:10:18;;;;;;;70.13;38.00;;;;;;;9.80;100.00;100834.84;7389471;19;20482;-35
2023/04/15 10:12:48;;;;;;;47.93;26.80;;;;;;;10.12;100.00;100842.31;7392877;19;20419;-35
2023/04/15 10:15:20;;;;;;;64.77;34.93;;;;;;;10.26;100.00;100848.09;7389133;19;20967;-34
2023/04/15 10:17:52;;;;;;;59.43;29.33;;;;;;;10.61;100.00;100856.50;7396650;19;20415;-35
2023/04/15 10:20:22;;;;;;;52.03;26.83;;;;;;;10.45;100.00;100859.25;7391837;19;20435;-35
2023/04/15 10:22:53;;;;;;;57.20;30.90;;;;;;;10.29;100.00;100867.97;7398128;19;20451;-35
2023/04/15 10:25:23;;;;;;;56.57;30.80;;;;;;;10.40;100.00;100870.19;7392844;19;20770;-35
2023/04/15 10:27:53;;;;;;;50.33;25.67;;;;;;;10.57;100.00;100877.84;7396544;19;20419;-35
2023/04/15 10:30:25;;;;;;;54.30;28.67;;;;;;;11.06;100.00;100880.72;7391875;19;20442;-35
2023/04/15 10:32:55;;;;;;;39.40;23.60;;;;;;;11.42;100.00;100883.06;7395858;19;20447;-38
2023/04/15 10:35:25;;;;;;;38.47;23.20;;;;;;;11.42;100.00;100877.00;7392464;19;20506;-34
2023/04/15 10:37:55;;;;;;;41.33;22.90;;;;;;;11.13;100.00;100893.06;7395145;19;20972;-34
2023/04/15 10:40:30;;;;;;;36.77;22.27;;;;;;;11.08;100.00;100892.03;7391228;19;20442;-34
2023/04/15 10:43:01;;;;;;;44.70;24.60;;;;;;;11.29;100.00;100891.16;7394798;19;20462;-35
2023/04/15 10:45:35;;;;;;;37.13;23.10;;;;;;;11.62;100.00;100882.97;7393094;19;20461;-35
2023/04/15 10:48:06;;;;;;;34.37;21.77;;;;;;;11.82;100.00;100885.44;7396278;19;20433;-35
2023/04/15 10:50:36;;;;;;;32.10;20.20;;;;;;;11.76;100.00;100891.28;7392207;19;20447;-34
2023/04/15 10:53:06;;;;;;;25.47;15.70;;;;;;;11.66;100.00;100897.78;7395683;19;20451;-34
2023/04/15 10:55:36;;;;;;;26.27;15.90;;;;;;;11.65;100.00;100911.53;7393426;19;20451;-34
2023/04/15 10:58:06;;;;;;;24.37;14.53;;;;;;;11.65;100.00;100916.72;7396504;19;20435;-34
2023/04/15 11:00:39;;;;;;;20.47;13.80;;;;;;;12.03;100.00;100911.25;7392059;19;21042;-34
2023/04/15 11:03:09;;;;;;;23.27;14.60;;;;;;;12.34;100.00;100927.06;7397674;19;20530;-35
2023/04/15 11:05:52;;;;;;;23.37;13.77;;;;;;;12.36;100.00;100931.47;7391950;19;20439;-34
2023/04/15 11:08:22;;;;;;;21.03;12.90;;;;;;;12.20;100.00;100939.50;7396730;19;20418;-35
2023/04/15 11:10:54;;;;;;;22.10;13.60;;;;;;;12.26;100.00;100939.75;7391334;19;20818;-35
2023/04/15 11:13:26;;;;;;;18.43;11.87;;;;;;;12.35;100.00;100941.81;7393609;19;21069;-35
2023/04/15 11:16:00;;;;;;;18.13;11.63;;;;;;;12.28;100.00;100944.16;7392201;19;20451;-34
2023/04/15 11:18:32;;;;;;;17.13;11.27;;;;;;;12.25;100.00;100964.72;7396721;19;20435;-35
2023/04/15 11:21:03;;;;;;;20.10;11.90;;;;;;;12.28;100.00;100962.25;7391853;19;20550;-34
2023/04/15 11:23:36;;;;;;;21.27;12.90;;;;;;;12.28;100.00;100964.84;7394924;19;20471;-35
2023/04/15 11:26:08;;;;;;;16.60;11.53;;;;;;;12.20;100.00;100971.41;7393117;19;20440;-35